Time;durP1;ratioP1;P1;durP2;ratioP2;P2;SDS_P1;SDS_P2;PMS_P1;PMS_P2;Temp;Humidity;BMP_temperature;BMP_pressure;BME280_temperature;BME280_humidity;BME280_pressure;Samples;Min_cycle;Max_cycle;Signal;HPM_P1;HPM_P2
2022/03/07 00:01:22;;;;;;;0.25;0.25;;;;;;;;;;1834178;77;26813;-43
2022/03/07 00:03:49;;;;;;;0.20;0.20;;;;;;;;;;1839543;76;26590;-44
2022/03/07 00:06:16;;;;;;;0.30;0.30;;;;;;;;;;1846556;76;26247;-44
2022/03/07 00:08:43;;;;;;;0.85;0.28;;;;;;;;;;1839561;77;26341;-43
2022/03/07 00:11:11;;;;;;;0.15;0.15;;;;;;;;;;1838197;76;26290;-43
2022/03/07 00:13:38;;;;;;;0.25;0.20;;;;;;;;;;1833982;76;26255;-46
2022/03/07 00:16:06;;;;;;;0.20;0.20;;;;;;;;;;1851826;76;26325;-45
2022/03/07 00:18:33;;;;;;;0.20;0.20;;;;;;;;;;1852049;76;26761;-43
2022/03/07 00:21:00;;;;;;;0.28;0.28;;;;;;;;;;1846165;77;26737;-43
2022/03/07 00:23:27;;;;;;;0.20;0.20;;;;;;;;;;1842078;76;26356;-43
2022/03/07 00:25:55;;;;;;;0.28;0.28;;;;;;;;;;1848368;76;26360;-46
2022/03/07 00:28:22;;;;;;;0.30;0.30;;;;;;;;;;1833024;76;26297;-43
2022/03/07 00:30:49;;;;;;;0.20;0.20;;;;;;;;;;1833792;77;26367;-46
2022/03/07 00:33:17;;;;;;;0.23;0.23;;;;;;;;;;1840572;76;26262;-43
2022/03/07 00:35:44;;;;;;;0.25;0.25;;;;;;;;;;1842636;76;26267;-43
2022/03/07 00:38:12;;;;;;;1.02;0.37;;;;;;;;;;1851243;76;26428;-43
2022/03/07 00:40:39;;;;;;;0.20;0.20;;;;;;;;;;1851030;77;26283;-44
2022/03/07 00:43:08;;;;;;;0.40;0.40;;;;;;;;;;1832954;77;26274;-45
2022/03/07 00:45:35;;;;;;;0.28;0.28;;;;;;;;;;1839489;76;26285;-43
2022/03/07 00:48:03;;;;;;;0.20;0.20;;;;;;;;;;1830943;76;26747;-44
2022/03/07 00:50:30;;;;;;;0.37;0.37;;;;;;;;;;1834311;76;26274;-45
2022/03/07 00:52:58;;;;;;;0.30;0.30;;;;;;;;;;1838076;76;26259;-43
2022/03/07 00:55:25;;;;;;;0.20;0.20;;;;;;;;;;1832854;76;26706;-43
2022/03/07 00:57:52;;;;;;;0.20;0.20;;;;;;;;;;1834951;76;26278;-45
2022/03/07 01:00:20;;;;;;;0.10;0.10;;;;;;;;;;1830173;76;26266;-43
2022/03/07 01:02:47;;;;;;;0.20;0.20;;;;;;;;;;1833127;76;26324;-43
2022/03/07 01:05:14;;;;;;;0.20;0.20;;;;;;;;;;1842862;76;26794;-44
2022/03/07 01:07:42;;;;;;;0.30;0.30;;;;;;;;;;1826520;76;26705;-43
2022/03/07 01:10:09;;;;;;;0.20;0.20;;;;;;;;;;1845182;76;26303;-43
2022/03/07 01:12:37;;;;;;;0.30;0.30;;;;;;;;;;1833615;77;26228;-43
2022/03/07 01:15:05;;;;;;;0.30;0.30;;;;;;;;;;1846960;77;26868;-45
2022/03/07 01:17:33;;;;;;;0.53;0.10;;;;;;;;;;1851918;77;26283;-44
2022/03/07 01:20:00;;;;;;;0.20;0.20;;;;;;;;;;1841209;77;26298;-45
2022/03/07 01:22:27;;;;;;;0.25;0.25;;;;;;;;;;1845099;77;26290;-44
2022/03/07 01:24:54;;;;;;;0.10;0.10;;;;;;;;;;1843127;77;26809;-45
2022/03/07 01:27:22;;;;;;;0.17;0.17;;;;;;;;;;1834516;77;26398;-46
2022/03/07 01:29:49;;;;;;;0.10;0.10;;;;;;;;;;1851784;76;26209;-44
2022/03/07 01:32:17;;;;;;;0.47;0.30;;;;;;;;;;1851944;76;26648;-43
2022/03/07 01:34:44;;;;;;;0.82;0.20;;;;;;;;;;1848102;76;26774;-44
2022/03/07 01:37:11;;;;;;;0.20;0.20;;;;;;;;;;1840773;77;26216;-44
2022/03/07 01:39:38;;;;;;;0.20;0.20;;;;;;;;;;1826046;76;26333;-44
2022/03/07 01:42:06;;;;;;;0.20;0.20;;;;;;;;;;1826393;76;26278;-43
2022/03/07 01:44:34;;;;;;;0.30;0.30;;;;;;;;;;1830239;76;26344;-44
2022/03/07 01:47:01;;;;;;;0.10;0.10;;;;;;;;;;1838404;76;26737;-46
2022/03/07 01:49:28;;;;;;;0.10;0.10;;;;;;;;;;1824908;77;26825;-47
2022/03/07 01:51:56;;;;;;;0.25;0.23;;;;;;;;;;1851741;76;26263;-45
2022/03/07 01:54:25;;;;;;;0.30;0.30;;;;;;;;;;1840708;77;26769;-43
2022/03/07 01:56:53;;;;;;;0.23;0.23;;;;;;;;;;1829496;76;26362;-44
2022/03/07 01:59:22;;;;;;;0.20;0.20;;;;;;;;;;1822724;76;26302;-43
2022/03/07 02:01:49;;;;;;;0.88;0.50;;;;;;;;;;1839029;76;26727;-45
2022/03/07 02:04:17;;;;;;;0.10;0.10;;;;;;;;;;1834040;76;26271;-44
2022/03/07 02:06:45;;;;;;;0.30;0.30;;;;;;;;;;1830898;76;26348;-44
2022/03/07 02:09:12;;;;;;;0.20;0.20;;;;;;;;;;1835666;76;26788;-46
2022/03/07 02:11:39;;;;;;;0.20;0.20;;;;;;;;;;1840804;76;26389;-44
2022/03/07 02:14:17;;;;;;;0.20;0.20;;;;;;;;;;1851300;77;26812;-43
2022/03/07 02:16:45;;;;;;;0.30;0.30;;;;;;;;;;1846871;76;26204;-43
2022/03/07 02:19:13;;;;;;;0.28;0.20;;;;;;;;;;1844641;76;26279;-43
2022/03/07 02:21:42;;;;;;;0.37;0.37;;;;;;;;;;1857199;76;26262;-44
2022/03/07 02:24:09;;;;;;;0.23;0.23;;;;;;;;;;1839265;77;26277;-45
2022/03/07 02:26:37;;;;;;;0.20;0.20;;;;;;;;;;1837011;76;26702;-45
2022/03/07 02:29:05;;;;;;;0.37;0.37;;;;;;;;;;1826268;77;26215;-44
2022/03/07 02:31:34;;;;;;;0.25;0.25;;;;;;;;;;1847041;76;25698;-43
2022/03/07 02:34:01;;;;;;;0.20;0.20;;;;;;;;;;1841451;77;26398;-44
2022/03/07 02:36:28;;;;;;;0.30;0.30;;;;;;;;;;1830002;76;26675;-44
2022/03/07 02:38:55;;;;;;;0.25;0.25;;;;;;;;;;1822993;77;26242;-43
2022/03/07 02:41:23;;;;;;;0.20;0.20;;;;;;;;;;1851572;77;26243;-42
2022/03/07 02:43:50;;;;;;;0.30;0.30;;;;;;;;;;1852237;76;26289;-44
2022/03/07 02:46:18;;;;;;;0.23;0.23;;;;;;;;;;1845580;76;26349;-45
2022/03/07 02:48:45;;;;;;;0.20;0.20;;;;;;;;;;1837011;76;26775;-47
2022/03/07 02:51:12;;;;;;;0.50;0.20;;;;;;;;;;1848478;76;27368;-45
2022/03/07 02:53:39;;;;;;;0.20;0.20;;;;;;;;;;1842475;76;26307;-45
2022/03/07 02:56:07;;;;;;;0.20;0.20;;;;;;;;;;1851596;76;26323;-44
2022/03/07 02:58:34;;;;;;;0.30;0.30;;;;;;;;;;1851922;76;26314;-43
2022/03/07 03:01:01;;;;;;;0.10;0.10;;;;;;;;;;1832772;76;26736;-44
2022/03/07 03:03:29;;;;;;;0.30;0.30;;;;;;;;;;1833689;77;26858;-43
2022/03/07 03:05:56;;;;;;;0.13;0.13;;;;;;;;;;1832967;76;26755;-43
2022/03/07 03:08:23;;;;;;;0.20;0.20;;;;;;;;;;1850048;77;26323;-43
2022/03/07 03:10:51;;;;;;;0.33;0.30;;;;;;;;;;1851637;77;26334;-44
2022/03/07 03:13:20;;;;;;;0.45;0.30;;;;;;;;;;1837956;77;26731;-43
2022/03/07 03:15:48;;;;;;;0.40;0.40;;;;;;;;;;1842997;77;26577;-44
2022/03/07 03:18:16;;;;;;;0.20;0.20;;;;;;;;;;1846084;76;26967;-45
2022/03/07 03:20:44;;;;;;;0.15;0.15;;;;;;;;;;1841127;77;26263;-43
2022/03/07 03:23:12;;;;;;;0.40;0.20;;;;;;;;;;1847397;76;26368;-43
2022/03/07 03:25:39;;;;;;;0.20;0.20;;;;;;;;;;1842682;77;26345;-44
2022/03/07 03:28:07;;;;;;;0.20;0.20;;;;;;;;;;1836753;77;26342;-46
2022/03/07 03:30:34;;;;;;;0.30;0.30;;;;;;;;;;1845021;76;26265;-42
2022/03/07 03:33:02;;;;;;;0.20;0.20;;;;;;;;;;1846423;76;26922;-43
2022/03/07 03:35:29;;;;;;;0.30;0.30;;;;;;;;;;1844641;77;26279;-43
2022/03/07 03:37:57;;;;;;;0.20;0.20;;;;;;;;;;1844762;77;26295;-44
2022/03/07 03:40:24;;;;;;;0.28;0.28;;;;;;;;;;1842725;77;26334;-43
2022/03/07 03:42:52;;;;;;;0.20;0.20;;;;;;;;;;1849178;77;26454;-43
2022/03/07 03:45:19;;;;;;;0.10;0.10;;;;;;;;;;1851002;76;26333;-42
2022/03/07 03:47:46;;;;;;;0.20;0.20;;;;;;;;;;1847329;76;26267;-43
2022/03/07 03:50:15;;;;;;;0.30;0.30;;;;;;;;;;1847049;77;26661;-42
2022/03/07 03:52:43;;;;;;;0.17;0.17;;;;;;;;;;1841219;76;26373;-45
2022/03/07 03:55:11;;;;;;;1.10;0.20;;;;;;;;;;1844740;76;26248;-44
2022/03/07 03:57:39;;;;;;;0.30;0.30;;;;;;;;;;1848858;77;27006;-44
2022/03/07 04:00:11;;;;;;;0.30;0.30;;;;;;;;;;1843057;77;26222;-43
2022/03/07 04:02:39;;;;;;;0.20;0.17;;;;;;;;;;1846017;77;26393;-43
2022/03/07 04:05:06;;;;;;;1.30;0.13;;;;;;;;;;1843204;76;26223;-43
2022/03/07 04:07:33;;;;;;;0.30;0.30;;;;;;;;;;1842000;77;26269;-44
2022/03/07 04:10:01;;;;;;;0.23;0.23;;;;;;;;;;1843429;77;26309;-43
2022/03/07 04:12:28;;;;;;;0.53;0.25;;;;;;;;;;1836630;77;26358;-44
2022/03/07 04:14:55;;;;;;;0.17;0.17;;;;;;;;;;1831193;78;26208;-43
2022/03/07 04:17:22;;;;;;;1.52;0.30;;;;;;;;;;1825062;78;26235;-42
2022/03/07 04:19:50;;;;;;;0.20;0.20;;;;;;;;;;1831711;78;26220;-43
2022/03/07 04:22:17;;;;;;;0.55;0.40;;;;;;;;;;1828592;78;26261;-43
2022/03/07 04:24:44;;;;;;;0.30;0.28;;;;;;;;;;1833898;78;26298;-42
2022/03/07 04:27:11;;;;;;;0.20;0.20;;;;;;;;;;1830221;76;26420;-44
2022/03/07 04:29:39;;;;;;;0.25;0.25;;;;;;;;;;1834129;78;26543;-42
2022/03/07 04:32:07;;;;;;;0.75;0.20;;;;;;;;;;1832353;78;26264;-43
2022/03/07 04:34:34;;;;;;;0.10;0.10;;;;;;;;;;1830288;78;26767;-42
2022/03/07 04:37:01;;;;;;;0.20;0.20;;;;;;;;;;1830458;78;26315;-43
2022/03/07 04:39:28;;;;;;;0.30;0.30;;;;;;;;;;1826336;78;26288;-44
2022/03/07 04:41:56;;;;;;;0.33;0.33;;;;;;;;;;1837220;78;26252;-45
2022/03/07 04:44:23;;;;;;;0.60;0.60;;;;;;;;;;1834483;78;26341;-45
2022/03/07 04:46:50;;;;;;;0.60;0.60;;;;;;;;;;1829782;78;26325;-45
2022/03/07 04:49:18;;;;;;;0.50;0.50;;;;;;;;;;1836454;78;26346;-44
2022/03/07 04:51:45;;;;;;;0.72;0.60;;;;;;;;;;1826684;78;26336;-43
2022/03/07 04:54:14;;;;;;;0.60;0.60;;;;;;;;;;1836258;78;26313;-43
2022/03/07 04:56:45;;;;;;;0.60;0.60;;;;;;;;;;1834190;78;26291;-44
2022/03/07 04:59:14;;;;;;;0.85;0.75;;;;;;;;;;1833474;78;26322;-44
2022/03/07 05:01:42;;;;;;;0.80;0.80;;;;;;;;;;1837611;78;26276;-43
2022/03/07 05:04:09;;;;;;;0.70;0.70;;;;;;;;;;1831530;78;26333;-45
2022/03/07 05:06:37;;;;;;;0.90;0.70;;;;;;;;;;1830160;78;27188;-42
2022/03/07 05:09:04;;;;;;;0.85;0.80;;;;;;;;;;1832931;76;26349;-43
2022/03/07 05:11:31;;;;;;;0.60;0.60;;;;;;;;;;1837523;77;26307;-43
2022/03/07 05:13:59;;;;;;;1.87;0.80;;;;;;;;;;1843824;76;26831;-44
2022/03/07 05:16:26;;;;;;;0.90;0.90;;;;;;;;;;1846337;77;26695;-44
2022/03/07 05:18:53;;;;;;;0.60;0.60;;;;;;;;;;1836267;76;27211;-42
2022/03/07 05:21:21;;;;;;;0.72;0.72;;;;;;;;;;1842939;76;26006;-44
2022/03/07 05:23:48;;;;;;;0.82;0.82;;;;;;;;;;1837187;76;26318;-46
2022/03/07 05:26:16;;;;;;;0.70;0.70;;;;;;;;;;1836891;76;26259;-42
2022/03/07 05:28:43;;;;;;;0.60;0.60;;;;;;;;;;1839450;76;26270;-42
2022/03/07 05:31:12;;;;;;;0.95;0.70;;;;;;;;;;1828032;76;26652;-43
2022/03/07 05:33:39;;;;;;;0.93;0.70;;;;;;;;;;1843253;76;26228;-46
2022/03/07 05:36:06;;;;;;;0.62;0.62;;;;;;;;;;1834572;77;26753;-43
2022/03/07 05:38:34;;;;;;;0.70;0.70;;;;;;;;;;1831693;77;26324;-43
2022/03/07 05:41:01;;;;;;;1.70;0.60;;;;;;;;;;1837860;77;26460;-43
2022/03/07 05:43:28;;;;;;;1.85;0.70;;;;;;;;;;1841205;76;26283;-45
2022/03/07 05:45:56;;;;;;;1.37;0.88;;;;;;;;;;1831329;76;26295;-43
2022/03/07 05:48:24;;;;;;;0.62;0.62;;;;;;;;;;1839032;77;26383;-42
2022/03/07 05:50:51;;;;;;;1.85;0.60;;;;;;;;;;1846165;77;27367;-44
2022/03/07 05:53:21;;;;;;;0.72;0.60;;;;;;;;;;1836402;76;27193;-44
2022/03/07 05:55:51;;;;;;;0.62;0.62;;;;;;;;;;1846861;77;26349;-42
2022/03/07 05:58:18;;;;;;;0.50;0.50;;;;;;;;;;1832894;76;26204;-43
2022/03/07 06:00:45;;;;;;;1.50;0.57;;;;;;;;;;1848128;76;27482;-43
2022/03/07 06:03:13;;;;;;;0.40;0.40;;;;;;;;;;1850785;76;26200;-43
2022/03/07 06:05:40;;;;;;;0.60;0.60;;;;;;;;;;1846497;77;26353;-42
2022/03/07 06:08:07;;;;;;;0.60;0.60;;;;;;;;;;1835972;77;26757;-49
2022/03/07 06:10:34;;;;;;;1.10;0.50;;;;;;;;;;1847253;76;26790;-51
2022/03/07 06:13:02;;;;;;;0.78;0.47;;;;;;;;;;1851281;76;26747;-51
2022/03/07 06:15:29;;;;;;;0.50;0.50;;;;;;;;;;1850035;76;26625;-47
2022/03/07 06:17:58;;;;;;;0.72;0.72;;;;;;;;;;1855751;76;26282;-45
2022/03/07 06:20:26;;;;;;;0.50;0.50;;;;;;;;;;1838294;76;26295;-43
2022/03/07 06:22:54;;;;;;;0.55;0.55;;;;;;;;;;1851504;76;26341;-43
2022/03/07 06:25:22;;;;;;;0.90;0.50;;;;;;;;;;1850796;76;26859;-49
2022/03/07 06:27:49;;;;;;;0.37;0.37;;;;;;;;;;1848239;77;26326;-44
2022/03/07 06:30:16;;;;;;;0.60;0.50;;;;;;;;;;1837984;77;26251;-44
2022/03/07 06:32:43;;;;;;;0.50;0.50;;;;;;;;;;1831870;76;26322;-48
2022/03/07 06:35:11;;;;;;;0.45;0.45;;;;;;;;;;1848082;76;26336;-46
2022/03/07 06:37:38;;;;;;;0.40;0.40;;;;;;;;;;1842868;76;26785;-43
2022/03/07 06:40:07;;;;;;;0.30;0.30;;;;;;;;;;1844871;76;26298;-42
2022/03/07 06:42:34;;;;;;;0.62;0.42;;;;;;;;;;1842744;77;26310;-48
2022/03/07 06:45:01;;;;;;;0.72;0.50;;;;;;;;;;1837107;76;26315;-42
2022/03/07 06:47:29;;;;;;;0.95;0.55;;;;;;;;;;1838632;77;26279;-43
2022/03/07 06:49:58;;;;;;;0.80;0.50;;;;;;;;;;1848570;76;26314;-45
2022/03/07 06:52:25;;;;;;;0.40;0.40;;;;;;;;;;1857446;76;26540;-41
2022/03/07 06:54:53;;;;;;;0.40;0.40;;;;;;;;;;1840084;76;26205;-44
2022/03/07 06:57:21;;;;;;;0.50;0.50;;;;;;;;;;1851811;77;26854;-45
2022/03/07 06:59:49;;;;;;;0.42;0.42;;;;;;;;;;1849796;76;26291;-44
2022/03/07 07:02:17;;;;;;;1.75;0.40;;;;;;;;;;1848996;77;26226;-46
2022/03/07 07:04:44;;;;;;;0.40;0.40;;;;;;;;;;1851470;76;26759;-41
2022/03/07 07:07:11;;;;;;;0.47;0.47;;;;;;;;;;1852585;76;26725;-43
2022/03/07 07:09:39;;;;;;;0.33;0.33;;;;;;;;;;1848804;76;26243;-43
2022/03/07 07:12:07;;;;;;;0.47;0.40;;;;;;;;;;1860119;76;26234;-48
2022/03/07 07:14:36;;;;;;;0.82;0.50;;;;;;;;;;1833941;76;26803;-43
2022/03/07 07:17:04;;;;;;;0.37;0.37;;;;;;;;;;1839429;77;27136;-49
2022/03/07 07:19:31;;;;;;;0.33;0.33;;;;;;;;;;1828285;76;26356;-44
2022/03/07 07:21:58;;;;;;;0.40;0.40;;;;;;;;;;1853634;76;26198;-44
2022/03/07 07:24:26;;;;;;;0.35;0.35;;;;;;;;;;1850980;76;26241;-44
2022/03/07 07:26:54;;;;;;;0.30;0.30;;;;;;;;;;1853446;76;26368;-42
2022/03/07 07:29:22;;;;;;;0.37;0.25;;;;;;;;;;1854377;76;25334;-44
2022/03/07 07:31:51;;;;;;;0.40;0.40;;;;;;;;;;1851332;76;26232;-42
2022/03/07 07:34:19;;;;;;;0.33;0.33;;;;;;;;;;1851587;76;26699;-46
2022/03/07 07:36:47;;;;;;;0.30;0.30;;;;;;;;;;1851257;77;26208;-43
2022/03/07 07:39:15;;;;;;;0.78;0.30;;;;;;;;;;1835056;77;26730;-44
2022/03/07 07:41:43;;;;;;;0.25;0.25;;;;;;;;;;1838471;76;26279;-42
2022/03/07 07:44:10;;;;;;;0.42;0.42;;;;;;;;;;1833428;77;26270;-44
2022/03/07 07:46:37;;;;;;;0.30;0.30;;;;;;;;;;1828001;77;26723;-43
2022/03/07 07:49:05;;;;;;;0.37;0.37;;;;;;;;;;1851906;76;26200;-48
2022/03/07 07:51:33;;;;;;;0.40;0.40;;;;;;;;;;1845932;77;27055;-45
2022/03/07 07:54:01;;;;;;;0.40;0.40;;;;;;;;;;1841849;76;26739;-42
2022/03/07 07:56:28;;;;;;;0.20;0.20;;;;;;;;;;1842912;77;26396;-42
2022/03/07 07:58:55;;;;;;;0.42;0.28;;;;;;;;;;1821550;77;26742;-48
2022/03/07 08:01:23;;;;;;;0.47;0.40;;;;;;;;;;1829910;76;26369;-46
2022/03/07 08:03:51;;;;;;;1.07;0.47;;;;;;;;;;1851642;76;26763;-43
2022/03/07 08:06:18;;;;;;;0.40;0.40;;;;;;;;;;1835670;77;26336;-43
2022/03/07 08:08:45;;;;;;;0.55;0.40;;;;;;;;;;1831904;77;26317;-46
2022/03/07 08:11:13;;;;;;;0.28;0.28;;;;;;;;;;1847223;76;26785;-45
2022/03/07 08:13:40;;;;;;;0.20;0.20;;;;;;;;;;1843606;77;26703;-47
2022/03/07 08:16:08;;;;;;;0.30;0.30;;;;;;;;;;1832963;76;26310;-44
2022/03/07 08:18:35;;;;;;;0.40;0.40;;;;;;;;;;1841371;77;26813;-42
2022/03/07 08:21:03;;;;;;;0.30;0.30;;;;;;;;;;1845055;77;26750;-41
2022/03/07 08:23:30;;;;;;;0.40;0.40;;;;;;;;;;1832531;76;26204;-44
2022/03/07 08:25:57;;;;;;;0.40;0.40;;;;;;;;;;1836208;76;26222;-41
2022/03/07 08:28:24;;;;;;;0.40;0.40;;;;;;;;;;1850533;77;26698;-42
2022/03/07 08:30:52;;;;;;;0.30;0.30;;;;;;;;;;1848392;76;26668;-42
2022/03/07 08:33:19;;;;;;;0.25;0.25;;;;;;;;;;1837094;77;26800;-45
2022/03/07 08:35:46;;;;;;;0.20;0.20;;;;;;;;;;1835454;77;26270;-42
2022/03/07 08:38:13;;;;;;;0.45;0.45;;;;;;;;;;1828302;76;26278;-45
2022/03/07 08:40:41;;;;;;;0.23;0.23;;;;;;;;;;1849655;76;26365;-44
2022/03/07 08:43:08;;;;;;;0.37;0.37;;;;;;;;;;1837587;76;26287;-42
2022/03/07 08:45:35;;;;;;;0.40;0.40;;;;;;;;;;1840456;77;26260;-42
2022/03/07 08:48:02;;;;;;;0.37;0.37;;;;;;;;;;1864810;76;26324;-42
2022/03/07 08:50:30;;;;;;;1.35;0.40;;;;;;;;;;1851752;76;26767;-44
2022/03/07 08:52:57;;;;;;;0.20;0.20;;;;;;;;;;1852073;77;26273;-42
2022/03/07 08:55:24;;;;;;;0.30;0.30;;;;;;;;;;1847118;76;26413;-41
2022/03/07 08:57:52;;;;;;;0.65;0.30;;;;;;;;;;1821690;77;26210;-42
2022/03/07 09:00:19;;;;;;;0.28;0.28;;;;;;;;;;1824263;76;26348;-45
2022/03/07 09:02:47;;;;;;;0.50;0.50;;;;;;;;;;1840551;77;26215;-42
2022/03/07 09:05:14;;;;;;;0.30;0.30;;;;;;;;;;1827478;77;26273;-42
2022/03/07 09:07:42;;;;;;;0.30;0.30;;;;;;;;;;1821726;77;26757;-42
2022/03/07 09:10:10;;;;;;;0.30;0.30;;;;;;;;;;1840760;76;26359;-44
2022/03/07 09:12:37;;;;;;;0.30;0.30;;;;;;;;;;1839974;76;26592;-46
2022/03/07 09:15:06;;;;;;;0.30;0.30;;;;;;;;;;1815603;76;26255;-46
2022/03/07 09:17:34;;;;;;;0.20;0.20;;;;;;;;;;1825699;78;26259;-42
2022/03/07 09:20:01;;;;;;;0.30;0.30;;;;;;;;;;1832446;78;26208;-44
2022/03/07 09:22:29;;;;;;;0.20;0.20;;;;;;;;;;1834836;78;26663;-44
2022/03/07 09:24:56;;;;;;;0.25;0.25;;;;;;;;;;1823242;77;26290;-43
2022/03/07 09:27:23;;;;;;;0.30;0.30;;;;;;;;;;1828258;78;26348;-44
2022/03/07 09:29:51;;;;;;;0.35;0.35;;;;;;;;;;1832309;78;26348;-41
2022/03/07 09:32:18;;;;;;;0.30;0.30;;;;;;;;;;1832327;78;26315;-43
2022/03/07 09:34:45;;;;;;;0.30;0.30;;;;;;;;;;1838539;78;26263;-42
2022/03/07 09:37:13;;;;;;;0.30;0.30;;;;;;;;;;1823924;78;26626;-48
2022/03/07 09:39:40;;;;;;;0.20;0.20;;;;;;;;;;1842892;78;26338;-45
2022/03/07 09:42:09;;;;;;;0.40;0.40;;;;;;;;;;1823903;78;26224;-44
2022/03/07 09:44:36;;;;;;;0.30;0.30;;;;;;;;;;1842544;78;26648;-43
2022/03/07 09:47:04;;;;;;;0.30;0.30;;;;;;;;;;1826453;78;26281;-42
2022/03/07 09:49:32;;;;;;;0.45;0.45;;;;;;;;;;1822365;78;26201;-42
2022/03/07 09:52:00;;;;;;;0.30;0.30;;;;;;;;;;1825879;78;26239;-42
2022/03/07 09:54:27;;;;;;;0.37;0.30;;;;;;;;;;1842653;78;26736;-48
2022/03/07 09:56:55;;;;;;;0.30;0.30;;;;;;;;;;1828674;78;26881;-46
2022/03/07 09:59:23;;;;;;;0.20;0.20;;;;;;;;;;1828636;78;26403;-48
2022/03/07 10:02:01;;;;;;;0.40;0.40;;;;;;;;;;1842649;78;26228;-42
2022/03/07 10:04:30;;;;;;;0.30;0.30;;;;;;;;;;1839806;78;26314;-41
2022/03/07 10:06:58;;;;;;;0.30;0.30;;;;;;;;;;1828369;78;26224;-43
2022/03/07 10:09:26;;;;;;;0.20;0.20;;;;;;;;;;1827805;78;26204;-42
2022/03/07 10:11:55;;;;;;;0.40;0.40;;;;;;;;;;1827644;78;26349;-42
2022/03/07 10:14:45;;;;;;;0.30;0.30;;;;;;;;;;1826661;76;26300;-42
2022/03/07 10:17:17;;;;;;;0.20;0.20;;;;;;;;;;1849282;76;26396;-44
2022/03/07 10:19:46;;;;;;;0.40;0.40;;;;;;;;;;1822058;77;26709;-47
2022/03/07 10:22:22;;;;;;;0.30;0.30;;;;;;;;;;1844167;76;26722;-48
2022/03/07 10:24:59;;;;;;;0.30;0.30;;;;;;;;;;1843120;77;26627;-43
2022/03/07 10:27:30;;;;;;;0.23;0.23;;;;;;;;;;1833408;76;26347;-42
2022/03/07 10:29:58;;;;;;;0.20;0.20;;;;;;;;;;1847420;76;26324;-44
2022/03/07 10:32:25;;;;;;;0.15;0.15;;;;;;;;;;1840842;76;26332;-46
2022/03/07 10:34:53;;;;;;;0.35;0.20;;;;;;;;;;1842349;76;27486;-43
2022/03/07 10:37:22;;;;;;;0.20;0.20;;;;;;;;;;1822961;76;26360;-45
2022/03/07 10:39:52;;;;;;;0.10;0.10;;;;;;;;;;1838796;76;26333;-41
2022/03/07 10:42:20;;;;;;;0.20;0.20;;;;;;;;;;1835068;76;26700;-42
2022/03/07 10:44:48;;;;;;;0.20;0.20;;;;;;;;;;1823214;76;26360;-42
2022/03/07 10:47:16;;;;;;;0.40;0.40;;;;;;;;;;1823704;76;26730;-45
2022/03/07 10:49:48;;;;;;;0.40;0.40;;;;;;;;;;1837450;76;26259;-42
2022/03/07 10:52:16;;;;;;;0.30;0.30;;;;;;;;;;1842854;76;26293;-46
2022/03/07 10:54:43;;;;;;;0.23;0.23;;;;;;;;;;1838156;76;26743;-44
2022/03/07 10:57:11;;;;;;;0.20;0.20;;;;;;;;;;1840196;76;26275;-44
2022/03/07 10:59:38;;;;;;;0.20;0.20;;;;;;;;;;1840599;76;26741;-42
2022/03/07 11:02:14;;;;;;;0.17;0.17;;;;;;;;;;1840375;76;26361;-45
2022/03/07 11:04:42;;;;;;;0.20;0.20;;;;;;;;;;1851649;76;26295;-43
2022/03/07 11:07:09;;;;;;;0.35;0.35;;;;;;;;;;1847234;76;26271;-42
2022/03/07 11:09:37;;;;;;;0.30;0.20;;;;;;;;;;1841392;76;26278;-44
2022/03/07 11:12:06;;;;;;;0.25;0.25;;;;;;;;;;1831306;76;26278;-46
2022/03/07 11:14:33;;;;;;;0.20;0.20;;;;;;;;;;1833768;76;26747;-44
2022/03/07 11:17:01;;;;;;;0.20;0.20;;;;;;;;;;1844355;77;26925;-45
2022/03/07 11:19:29;;;;;;;0.20;0.20;;;;;;;;;;1840926;76;26207;-41
2022/03/07 11:21:57;;;;;;;0.20;0.20;;;;;;;;;;1847978;76;26356;-43
2022/03/07 11:24:25;;;;;;;0.17;0.17;;;;;;;;;;1823058;77;26269;-43
2022/03/07 11:26:53;;;;;;;0.17;0.17;;;;;;;;;;1851356;76;26296;-46
2022/03/07 11:29:22;;;;;;;0.13;0.13;;;;;;;;;;1833331;76;27343;-46
2022/03/07 11:31:51;;;;;;;0.20;0.20;;;;;;;;;;1845799;76;26272;-43
2022/03/07 11:34:18;;;;;;;0.13;0.13;;;;;;;;;;1830545;76;26285;-46
2022/03/07 11:36:47;;;;;;;0.20;0.20;;;;;;;;;;1824193;76;26282;-43
2022/03/07 11:39:14;;;;;;;0.30;0.30;;;;;;;;;;1836522;77;26337;-42
2022/03/07 11:41:42;;;;;;;0.30;0.30;;;;;;;;;;1841190;76;26357;-47
2022/03/07 11:44:11;;;;;;;0.20;0.20;;;;;;;;;;1837052;76;26216;-42
2022/03/07 11:46:40;;;;;;;0.20;0.20;;;;;;;;;;1834299;76;26367;-43
2022/03/07 11:49:09;;;;;;;0.25;0.25;;;;;;;;;;1847727;76;26271;-43
2022/03/07 11:51:38;;;;;;;0.20;0.20;;;;;;;;;;1833878;76;26337;-44
2022/03/07 11:54:06;;;;;;;0.20;0.20;;;;;;;;;;1822142;77;26697;-45
2022/03/07 11:56:34;;;;;;;0.30;0.30;;;;;;;;;;1849957;76;26415;-42
2022/03/07 11:59:03;;;;;;;0.30;0.30;;;;;;;;;;1848096;76;26274;-46
2022/03/07 12:01:31;;;;;;;0.20;0.20;;;;;;;;;;1849008;77;26706;-43
2022/03/07 12:04:09;;;;;;;0.28;0.28;;;;;;;;;;1847225;76;26721;-45
2022/03/07 12:06:41;;;;;;;0.23;0.23;;;;;;;;;;1843049;76;26310;-47
2022/03/07 12:09:09;;;;;;;0.10;0.10;;;;;;;;;;1831775;76;26762;-43
2022/03/07 12:11:38;;;;;;;0.40;0.20;;;;;;;;;;1845247;76;26462;-45
2022/03/07 12:14:07;;;;;;;0.20;0.20;;;;;;;;;;1846084;77;26268;-42
2022/03/07 12:16:36;;;;;;;0.13;0.13;;;;;;;;;;1842706;77;26393;-45
2022/03/07 12:19:11;;;;;;;0.20;0.20;;;;;;;;;;1837999;78;26879;-49
2022/03/07 12:21:41;;;;;;;0.20;0.20;;;;;;;;;;1851110;76;26277;-42
2022/03/07 12:24:09;;;;;;;0.23;0.23;;;;;;;;;;1822207;78;26314;-45
2022/03/07 12:26:47;;;;;;;0.20;0.20;;;;;;;;;;1837497;78;27575;-42
2022/03/07 12:29:16;;;;;;;0.30;0.30;;;;;;;;;;1814332;78;26729;-41
2022/03/07 12:31:53;;;;;;;0.20;0.20;;;;;;;;;;1830044;78;26255;-42
2022/03/07 12:34:25;;;;;;;0.30;0.30;;;;;;;;;;1840637;78;26212;-43
2022/03/07 12:37:08;;;;;;;1.12;0.20;;;;;;;;;;1843211;78;26249;-44
2022/03/07 12:39:51;;;;;;;0.20;0.20;;;;;;;;;;1842854;78;26838;-41
2022/03/07 12:42:20;;;;;;;0.20;0.20;;;;;;;;;;1833833;78;26307;-44
2022/03/07 12:44:48;;;;;;;0.20;0.20;;;;;;;;;;1827735;78;26272;-44
2022/03/07 12:47:17;;;;;;;0.25;0.25;;;;;;;;;;1837193;78;26732;-42
2022/03/07 12:49:46;;;;;;;0.13;0.13;;;;;;;;;;1831288;78;26295;-47
2022/03/07 12:52:15;;;;;;;0.20;0.20;;;;;;;;;;1818588;78;26306;-43
2022/03/07 12:54:42;;;;;;;0.13;0.13;;;;;;;;;;1836227;78;26279;-43
2022/03/07 12:57:11;;;;;;;0.20;0.20;;;;;;;;;;1828720;76;26402;-44
2022/03/07 12:59:39;;;;;;;0.30;0.30;;;;;;;;;;1839915;78;26373;-45
2022/03/07 13:02:06;;;;;;;0.20;0.20;;;;;;;;;;1843774;78;26717;-46
2022/03/07 13:04:33;;;;;;;0.40;0.20;;;;;;;;;;1832735;78;26313;-42
2022/03/07 13:07:11;;;;;;;1.40;0.20;;;;;;;;;;1815748;78;26208;-42
2022/03/07 13:09:39;;;;;;;0.70;0.20;;;;;;;;;;1817377;78;26294;-42
2022/03/07 13:12:10;;;;;;;0.20;0.20;;;;;;;;;;1843054;78;26276;-43
2022/03/07 13:14:38;;;;;;;0.10;0.10;;;;;;;;;;1842435;78;26288;-42
2022/03/07 13:17:08;;;;;;;0.20;0.20;;;;;;;;;;1826480;78;26309;-47
2022/03/07 13:19:36;;;;;;;1.22;0.23;;;;;;;;;;1835542;78;27262;-42
2022/03/07 13:22:05;;;;;;;0.20;0.20;;;;;;;;;;1826299;78;26348;-43
2022/03/07 13:24:33;;;;;;;0.10;0.10;;;;;;;;;;1831552;76;26238;-46
2022/03/07 13:27:02;;;;;;;0.42;0.30;;;;;;;;;;1819375;78;26262;-43
2022/03/07 13:29:31;;;;;;;0.20;0.20;;;;;;;;;;1831062;78;26212;-42
2022/03/07 13:32:03;;;;;;;0.00;0.00;;;;;;;;;;1824135;78;26208;-42
2022/03/07 13:34:44;;;;;;;0.10;0.10;;;;;;;;;;1825201;78;26215;-43
2022/03/07 13:37:12;;;;;;;0.15;0.10;;;;;;;;;;1820469;78;26297;-46
2022/03/07 13:39:39;;;;;;;0.20;0.20;;;;;;;;;;1832151;78;26586;-43
2022/03/07 13:42:08;;;;;;;0.30;0.30;;;;;;;;;;1828099;78;26281;-48
2022/03/07 13:44:37;;;;;;;0.20;0.20;;;;;;;;;;1843612;78;26260;-43
2022/03/07 13:47:06;;;;;;;0.20;0.20;;;;;;;;;;1840526;78;26295;-48
2022/03/07 13:49:47;;;;;;;0.13;0.13;;;;;;;;;;1843336;78;26560;-44
2022/03/07 13:52:19;;;;;;;0.20;0.20;;;;;;;;;;1828010;78;26287;-45
2022/03/07 13:54:47;;;;;;;0.10;0.10;;;;;;;;;;1840966;78;26383;-42
2022/03/07 13:57:15;;;;;;;0.10;0.10;;;;;;;;;;1816787;78;26375;-45
2022/03/07 13:59:58;;;;;;;0.17;0.17;;;;;;;;;;1829933;78;26293;-50
2022/03/07 14:02:26;;;;;;;0.40;0.23;;;;;;;;;;1835913;78;26264;-50
2022/03/07 14:04:55;;;;;;;0.20;0.20;;;;;;;;;;1835223;78;26230;-46
2022/03/07 14:07:24;;;;;;;1.20;0.20;;;;;;;;;;1825344;76;26223;-49
2022/03/07 14:09:55;;;;;;;1.45;0.20;;;;;;;;;;1831114;77;26355;-47
2022/03/07 14:12:27;;;;;;;0.42;0.40;;;;;;;;;;1829399;78;26660;-46
2022/03/07 14:15:02;;;;;;;1.85;0.30;;;;;;;;;;1833846;78;26319;-49
2022/03/07 14:17:31;;;;;;;0.85;0.40;;;;;;;;;;1844760;77;26916;-47
2022/03/07 14:19:58;;;;;;;0.30;0.30;;;;;;;;;;1834824;77;26722;-47
2022/03/07 14:22:26;;;;;;;1.07;0.37;;;;;;;;;;1840857;76;26874;-46
2022/03/07 14:24:54;;;;;;;1.22;0.45;;;;;;;;;;1845912;77;26287;-51
2022/03/07 14:27:26;;;;;;;0.30;0.30;;;;;;;;;;1834955;77;26285;-49
2022/03/07 14:29:54;;;;;;;1.22;0.30;;;;;;;;;;1834478;77;26292;-45
2022/03/07 14:32:21;;;;;;;0.40;0.40;;;;;;;;;;1846996;76;26275;-47
2022/03/07 14:34:54;;;;;;;0.90;0.30;;;;;;;;;;1835646;76;26274;-47
2022/03/07 14:37:18;;;;;;;1.20;0.35;;;;;;;;;;1838273;76;26690;-47
2022/03/07 14:39:45;;;;;;;0.37;0.37;;;;;;;;;;1831109;76;26290;-48
2022/03/07 14:42:12;;;;;;;0.30;0.30;;;;;;;;;;1847729;76;26443;-46
2022/03/07 14:44:39;;;;;;;0.30;0.30;;;;;;;;;;1835932;76;26357;-52
2022/03/07 14:47:07;;;;;;;1.00;0.40;;;;;;;;;;1848689;76;26806;-47
2022/03/07 14:49:36;;;;;;;2.92;0.40;;;;;;;;;;1852133;76;26356;-51